sensor_id;sensor_type;location;lat;lon;timestamp;temperature;humidity
23801;DHT22;12081;48.614;10.226;2024-03-23T00:56:31;8.20;99.90
23801;DHT22;12081;48.614;10.226;2024-03-23T00:59:16;7.00;99.90
23801;DHT22;12081;48.614;10.226;2024-03-23T01:02:00;7.70;99.90
23801;DHT22;12081;48.614;10.226;2024-03-23T01:04:45;7.70;99.90
23801;DHT22;12081;48.614;10.226;2024-03-23T01:07:30;8.30;99.90
23801;DHT22;12081;48.614;10.226;2024-03-23T01:10:14;8.20;99.90
23801;DHT22;12081;48.614;10.226;2024-03-23T01:12:59;8.30;99.90
23801;DHT22;12081;48.614;10.226;2024-03-23T01:15:48;7.10;99.90
23801;DHT22;12081;48.614;10.226;2024-03-23T01:18:33;6.40;99.90
23801;DHT22;12081;48.614;10.226;2024-03-23T01:21:18;8.10;99.90
23801;DHT22;12081;48.614;10.226;2024-03-23T01:24:03;9.30;99.90
23801;DHT22;12081;48.614;10.226;2024-03-23T01:26:47;6.20;99.90
23801;DHT22;12081;48.614;10.226;2024-03-23T01:29:31;8.50;99.90
23801;DHT22;12081;48.614;10.226;2024-03-23T01:32:15;9.50;99.90
23801;DHT22;12081;48.614;10.226;2024-03-23T01:34:59;8.30;99.90
23801;DHT22;12081;48.614;10.226;2024-03-23T01:37:44;8.70;99.90
23801;DHT22;12081;48.614;10.226;2024-03-23T01:40:28;8.60;99.90
23801;DHT22;12081;48.614;10.226;2024-03-23T01:43:16;7.90;99.90
23801;DHT22;12081;48.614;10.226;2024-03-23T01:46:00;9.50;99.90
23801;DHT22;12081;48.614;10.226;2024-03-23T01:48:45;7.50;99.90
23801;DHT22;12081;48.614;10.226;2024-03-23T01:51:33;9.50;99.90
23801;DHT22;12081;48.614;10.226;2024-03-23T01:54:17;9.10;99.90
23801;DHT22;12081;48.614;10.226;2024-03-23T01:59:38;6.60;99.90
23801;DHT22;12081;48.614;10.226;2024-03-23T02:06:40;4.90;99.90
23801;DHT22;12081;48.614;10.226;2024-03-23T02:09:26;6.90;99.90
23801;DHT22;12081;48.614;10.226;2024-03-23T02:12:17;6.70;99.90
23801;DHT22;12081;48.614;10.226;2024-03-23T02:15:08;6.70;99.90
23801;DHT22;12081;48.614;10.226;2024-03-23T02:17:54;6.80;99.90
23801;DHT22;12081;48.614;10.226;2024-03-23T02:20:39;6.80;99.90
23801;DHT22;12081;48.614;10.226;2024-03-23T02:23:25;7.00;99.90
23801;DHT22;12081;48.614;10.226;2024-03-23T02:26:09;7.10;99.90
23801;DHT22;12081;48.614;10.226;2024-03-23T02:28:55;7.20;99.90
23801;DHT22;12081;48.614;10.226;2024-03-23T02:31:44;7.40;99.90
23801;DHT22;12081;48.614;10.226;2024-03-23T02:34:29;9.30;99.90
23801;DHT22;12081;48.614;10.226;2024-03-23T02:37:14;7.60;99.90
23801;DHT22;12081;48.614;10.226;2024-03-23T02:39:59;7.70;99.90
23801;DHT22;12081;48.614;10.226;2024-03-23T02:42:44;8.30;99.90
23801;DHT22;12081;48.614;10.226;2024-03-23T02:45:29;7.90;99.90
23801;DHT22;12081;48.614;10.226;2024-03-23T04:52:42;8.00;99.90
23801;DHT22;12081;48.614;10.226;2024-03-23T04:55:27;9.40;99.90
23801;DHT22;12081;48.614;10.226;2024-03-23T04:58:12;7.80;99.90
23801;DHT22;12081;48.614;10.226;2024-03-23T05:00:57;7.70;99.90
23801;DHT22;12081;48.614;10.226;2024-03-23T05:03:41;7.70;99.90
23801;DHT22;12081;48.614;10.226;2024-03-23T05:06:25;8.80;99.90
23801;DHT22;12081;48.614;10.226;2024-03-23T05:09:10;7.30;99.90
23801;DHT22;12081;48.614;10.226;2024-03-23T05:11:57;7.30;99.90
23801;DHT22;12081;48.614;10.226;2024-03-23T05:14:41;8.90;99.90
23801;DHT22;12081;48.614;10.226;2024-03-23T05:17:25;7.90;99.90
23801;DHT22;12081;48.614;10.226;2024-03-23T05:20:10;6.90;99.90
23801;DHT22;12081;48.614;10.226;2024-03-23T05:22:56;6.80;99.90
23801;DHT22;12081;48.614;10.226;2024-03-23T05:25:40;6.90;99.90
23801;DHT22;12081;48.614;10.226;2024-03-23T05:31:22;7.20;99.90
23801;DHT22;12081;48.614;10.226;2024-03-23T05:34:06;9.80;99.90
23801;DHT22;12081;48.614;10.226;2024-03-23T05:36:51;10.30;99.90
23801;DHT22;12081;48.614;10.226;2024-03-23T06:03:18;8.50;99.90
23801;DHT22;12081;48.614;10.226;2024-03-23T06:14:02;9.10;99.90
23801;DHT22;12081;48.614;10.226;2024-03-23T06:17:16;7.00;99.90
23801;DHT22;12081;48.614;10.226;2024-03-23T06:20:03;9.70;99.90
23801;DHT22;12081;48.614;10.226;2024-03-23T06:22:54;9.00;99.90
23801;DHT22;12081;48.614;10.226;2024-03-23T06:25:55;10.70;99.90
23801;DHT22;12081;48.614;10.226;2024-03-23T06:33:45;9.00;99.90
23801;DHT22;12081;48.614;10.226;2024-03-23T06:36:29;11.70;99.90
23801;DHT22;12081;48.614;10.226;2024-03-23T06:39:15;10.80;99.90
23801;DHT22;12081;48.614;10.226;2024-03-23T06:42:00;8.80;99.90
23801;DHT22;12081;48.614;10.226;2024-03-23T06:44:44;8.60;99.90
23801;DHT22;12081;48.614;10.226;2024-03-23T06:47:28;8.50;99.90
23801;DHT22;12081;48.614;10.226;2024-03-23T06:50:12;8.30;99.90
23801;DHT22;12081;48.614;10.226;2024-03-23T06:52:56;8.30;99.90
23801;DHT22;12081;48.614;10.226;2024-03-23T06:55:49;8.10;99.90
23801;DHT22;12081;48.614;10.226;2024-03-23T07:01:34;8.10;99.90
23801;DHT22;12081;48.614;10.226;2024-03-23T07:07:20;7.70;99.90
23801;DHT22;12081;48.614;10.226;2024-03-23T07:10:06;7.70;99.90
23801;DHT22;12081;48.614;10.226;2024-03-23T07:18:21;7.60;99.90
23801;DHT22;12081;48.614;10.226;2024-03-23T07:26:35;7.60;99.90
23801;DHT22;12081;48.614;10.226;2024-03-23T07:29:19;7.70;99.90
23801;DHT22;12081;48.614;10.226;2024-03-23T07:32:04;7.60;99.90
23801;DHT22;12081;48.614;10.226;2024-03-23T07:45:52;7.70;99.90
23801;DHT22;12081;48.614;10.226;2024-03-23T07:48:37;7.70;99.90
23801;DHT22;12081;48.614;10.226;2024-03-23T07:51:22;7.80;99.90
23801;DHT22;12081;48.614;10.226;2024-03-23T07:54:07;7.90;99.90
23801;DHT22;12081;48.614;10.226;2024-03-23T07:59:36;8.40;99.90
23801;DHT22;12081;48.614;10.226;2024-03-23T08:07:51;8.90;99.90
23801;DHT22;12081;48.614;10.226;2024-03-23T08:10:53;8.60;99.90
23801;DHT22;12081;48.614;10.226;2024-03-23T08:13:50;8.40;99.90
23801;DHT22;12081;48.614;10.226;2024-03-23T08:16:50;8.30;99.90
23801;DHT22;12081;48.614;10.226;2024-03-23T08:19:42;8.00;99.90
23801;DHT22;12081;48.614;10.226;2024-03-23T08:23:14;8.10;99.90
23801;DHT22;12081;48.614;10.226;2024-03-23T08:26:54;8.30;99.90
23801;DHT22;12081;48.614;10.226;2024-03-23T08:29:45;8.30;99.90
23801;DHT22;12081;48.614;10.226;2024-03-23T08:32:30;8.40;99.90
23801;DHT22;12081;48.614;10.226;2024-03-23T08:35:14;8.40;99.90
23801;DHT22;12081;48.614;10.226;2024-03-23T08:37:58;8.40;99.90
23801;DHT22;12081;48.614;10.226;2024-03-23T08:40:42;8.30;99.90
23801;DHT22;12081;48.614;10.226;2024-03-23T08:46:13;8.40;99.90
23801;DHT22;12081;48.614;10.226;2024-03-23T08:51:45;8.50;99.90
23801;DHT22;12081;48.614;10.226;2024-03-23T09:10:24;8.30;99.90
23801;DHT22;12081;48.614;10.226;2024-03-23T09:37:20;9.30;99.90
23801;DHT22;12081;48.614;10.226;2024-03-23T09:40:04;10.80;99.90
23801;DHT22;12081;48.614;10.226;2024-03-23T09:42:51;10.40;99.90
23801;DHT22;12081;48.614;10.226;2024-03-23T09:45:39;11.10;99.90
23801;DHT22;12081;48.614;10.226;2024-03-23T09:48:24;10.60;99.90
23801;DHT22;12081;48.614;10.226;2024-03-23T09:51:08;10.60;99.90
23801;DHT22;12081;48.614;10.226;2024-03-23T09:53:52;10.60;99.90
23801;DHT22;12081;48.614;10.226;2024-03-23T09:56:37;11.20;99.90
23801;DHT22;12081;48.614;10.226;2024-03-23T09:59:21;13.90;99.90
23801;DHT22;12081;48.614;10.226;2024-03-23T10:02:06;14.00;94.50
23801;DHT22;12081;48.614;10.226;2024-03-23T10:07:35;12.90;96.90
23801;DHT22;12081;48.614;10.226;2024-03-23T10:10:20;13.10;96.40
23801;DHT22;12081;48.614;10.226;2024-03-23T10:13:05;11.50;97.80
23801;DHT22;12081;48.614;10.226;2024-03-23T10:15:58;10.70;99.10
23801;DHT22;12081;48.614;10.226;2024-03-23T10:18:43;11.00;99.30
23801;DHT22;12081;48.614;10.226;2024-03-23T10:24:12;11.20;99.60
23801;DHT22;12081;48.614;10.226;2024-03-23T10:29:42;14.80;93.40
23801;DHT22;12081;48.614;10.226;2024-03-23T10:32:26;15.70;87.90
23801;DHT22;12081;48.614;10.226;2024-03-23T10:35:15;16.30;78.80
23801;DHT22;12081;48.614;10.226;2024-03-23T10:38:00;16.10;70.70
23801;DHT22;12081;48.614;10.226;2024-03-23T10:40:44;15.20;71.30
23801;DHT22;12081;48.614;10.226;2024-03-23T10:43:30;14.50;76.10
23801;DHT22;12081;48.614;10.226;2024-03-23T10:51:45;12.30;86.10
23801;DHT22;12081;48.614;10.226;2024-03-23T10:54:33;11.30;90.10
23801;DHT22;12081;48.614;10.226;2024-03-23T10:57:48;12.20;91.20
23801;DHT22;12081;48.614;10.226;2024-03-23T11:03:38;12.30;89.70
23801;DHT22;12081;48.614;10.226;2024-03-23T11:06:38;11.30;88.30
23801;DHT22;12081;48.614;10.226;2024-03-23T11:09:40;11.00;89.70
23801;DHT22;12081;48.614;10.226;2024-03-23T11:12:29;10.90;88.80
23801;DHT22;12081;48.614;10.226;2024-03-23T11:18:05;10.40;89.10
23801;DHT22;12081;48.614;10.226;2024-03-23T11:20:51;10.40;89.60
23801;DHT22;12081;48.614;10.226;2024-03-23T11:23:36;9.80;93.10
23801;DHT22;12081;48.614;10.226;2024-03-23T11:29:12;9.50;98.00
23801;DHT22;12081;48.614;10.226;2024-03-23T11:31:56;9.60;93.90
23801;DHT22;12081;48.614;10.226;2024-03-23T11:40:18;14.00;83.40
23801;DHT22;12081;48.614;10.226;2024-03-23T11:43:04;15.50;71.80
23801;DHT22;12081;48.614;10.226;2024-03-23T11:45:50;16.00;68.20
23801;DHT22;12081;48.614;10.226;2024-03-23T11:48:38;14.20;67.10
23801;DHT22;12081;48.614;10.226;2024-03-23T11:51:22;13.20;70.50
23801;DHT22;12081;48.614;10.226;2024-03-23T11:54:10;11.50;73.90
23801;DHT22;12081;48.614;10.226;2024-03-23T11:56:58;10.00;81.20
23801;DHT22;12081;48.614;10.226;2024-03-23T11:59:42;9.50;86.90
23801;DHT22;12081;48.614;10.226;2024-03-23T12:05:16;8.60;92.70
23801;DHT22;12081;48.614;10.226;2024-03-23T12:08:23;8.60;95.00
23801;DHT22;12081;48.614;10.226;2024-03-23T12:11:17;8.90;99.90
23801;DHT22;12081;48.614;10.226;2024-03-23T12:19:33;7.90;99.90
23801;DHT22;12081;48.614;10.226;2024-03-23T12:22:20;7.90;99.90
23801;DHT22;12081;48.614;10.226;2024-03-23T12:27:50;7.50;99.90
23801;DHT22;12081;48.614;10.226;2024-03-23T12:30:42;8.30;99.90
23801;DHT22;12081;48.614;10.226;2024-03-23T12:36:11;9.30;99.90
23801;DHT22;12081;48.614;10.226;2024-03-23T12:49:57;11.50;99.90
23801;DHT22;12081;48.614;10.226;2024-03-23T12:58:12;8.80;99.90
23801;DHT22;12081;48.614;10.226;2024-03-23T13:00:58;8.30;99.90
23801;DHT22;12081;48.614;10.226;2024-03-23T13:14:47;8.90;99.90
23801;DHT22;12081;48.614;10.226;2024-03-23T13:20:15;8.70;99.90
23801;DHT22;12081;48.614;10.226;2024-03-23T13:23:00;8.60;99.90
23801;DHT22;12081;48.614;10.226;2024-03-23T13:25:51;8.80;99.90
23801;DHT22;12081;48.614;10.226;2024-03-23T13:28:37;9.00;99.90
23801;DHT22;12081;48.614;10.226;2024-03-23T13:31:21;8.80;99.90
23801;DHT22;12081;48.614;10.226;2024-03-23T13:39:34;8.80;99.90
23801;DHT22;12081;48.614;10.226;2024-03-23T13:45:03;9.60;99.90
23801;DHT22;12081;48.614;10.226;2024-03-23T13:47:48;9.60;99.90
23801;DHT22;12081;48.614;10.226;2024-03-23T13:50:32;10.10;99.90
23801;DHT22;12081;48.614;10.226;2024-03-23T13:53:16;9.90;99.50
23801;DHT22;12081;48.614;10.226;2024-03-23T14:15:29;10.20;97.60
23801;DHT22;12081;48.614;10.226;2024-03-23T14:18:14;10.00;96.70
23801;DHT22;12081;48.614;10.226;2024-03-23T14:20:59;9.90;99.40
23801;DHT22;12081;48.614;10.226;2024-03-23T14:46:08;8.90;94.40
23801;DHT22;12081;48.614;10.226;2024-03-23T14:57:08;8.70;92.90
23801;DHT22;12081;48.614;10.226;2024-03-23T15:05:24;9.30;94.60
23801;DHT22;12081;48.614;10.226;2024-03-23T15:19:08;8.60;94.50
23801;DHT22;12081;48.614;10.226;2024-03-23T15:30:06;8.00;98.60
23801;DHT22;12081;48.614;10.226;2024-03-23T16:00:19;6.50;99.90
23801;DHT22;12081;48.614;10.226;2024-03-23T16:05:55;5.90;99.90
23801;DHT22;12081;48.614;10.226;2024-03-23T16:27:53;5.10;99.90
23801;DHT22;12081;48.614;10.226;2024-03-23T16:36:09;5.40;99.90
23801;DHT22;12081;48.614;10.226;2024-03-23T16:55:23;5.00;99.90
23801;DHT22;12081;48.614;10.226;2024-03-23T16:58:08;4.90;99.90
23801;DHT22;12081;48.614;10.226;2024-03-23T17:03:40;4.70;99.90
23801;DHT22;12081;48.614;10.226;2024-03-23T17:09:10;4.40;99.90
23801;DHT22;12081;48.614;10.226;2024-03-23T17:11:54;4.40;99.90
23801;DHT22;12081;48.614;10.226;2024-03-23T17:14:39;4.40;99.90
23801;DHT22;12081;48.614;10.226;2024-03-23T17:20:24;4.20;99.90
23801;DHT22;12081;48.614;10.226;2024-03-23T17:23:28;4.50;99.90
23801;DHT22;12081;48.614;10.226;2024-03-23T17:28:59;4.40;99.90
23801;DHT22;12081;48.614;10.226;2024-03-23T17:37:12;3.90;99.90
23801;DHT22;12081;48.614;10.226;2024-03-23T17:39:56;4.20;99.90
23801;DHT22;12081;48.614;10.226;2024-03-23T17:51:02;4.10;99.90
23801;DHT22;12081;48.614;10.226;2024-03-23T18:07:32;3.80;99.90
23801;DHT22;12081;48.614;10.226;2024-03-23T18:15:55;3.70;99.90
23801;DHT22;12081;48.614;10.226;2024-03-23T18:32:25;3.50;99.90
23801;DHT22;12081;48.614;10.226;2024-03-23T18:37:53;3.60;99.90
23801;DHT22;12081;48.614;10.226;2024-03-23T18:40:46;3.60;99.90
23801;DHT22;12081;48.614;10.226;2024-03-23T18:46:16;3.60;99.90
23801;DHT22;12081;48.614;10.226;2024-03-23T19:30:14;2.40;99.90
23801;DHT22;12081;48.614;10.226;2024-03-23T19:57:45;1.80;99.90
23801;DHT22;12081;48.614;10.226;2024-03-23T20:00:30;1.70;99.90
23801;DHT22;12081;48.614;10.226;2024-03-23T20:47:13;0.60;99.90
23801;DHT22;12081;48.614;10.226;2024-03-23T21:01:00;1.60;99.90
23801;DHT22;12081;48.614;10.226;2024-03-23T22:42:36;2.00;99.90
23801;DHT22;12081;48.614;10.226;2024-03-23T22:50:54;2.10;99.90
23801;DHT22;12081;48.614;10.226;2024-03-23T23:01:52;2.20;99.90
23801;DHT22;12081;48.614;10.226;2024-03-23T23:04:36;2.30;99.90
23801;DHT22;12081;48.614;10.226;2024-03-23T23:07:21;2.30;99.90
23801;DHT22;12081;48.614;10.226;2024-03-23T23:10:05;2.30;99.90
23801;DHT22;12081;48.614;10.226;2024-03-23T23:12:50;2.40;99.90
23801;DHT22;12081;48.614;10.226;2024-03-23T23:15:35;2.40;99.90
23801;DHT22;12081;48.614;10.226;2024-03-23T23:18:19;2.40;99.90
23801;DHT22;12081;48.614;10.226;2024-03-23T23:21:03;2.40;99.90
23801;DHT22;12081;48.614;10.226;2024-03-23T23:23:47;2.40;99.90
23801;DHT22;12081;48.614;10.226;2024-03-23T23:26:31;2.40;99.90
23801;DHT22;12081;48.614;10.226;2024-03-23T23:29:15;2.40;99.90
23801;DHT22;12081;48.614;10.226;2024-03-23T23:31:59;2.40;99.90
23801;DHT22;12081;48.614;10.226;2024-03-23T23:34:43;2.40;99.90
23801;DHT22;12081;48.614;10.226;2024-03-23T23:37:28;2.40;99.90
23801;DHT22;12081;48.614;10.226;2024-03-23T23:40:12;2.40;99.90
23801;DHT22;12081;48.614;10.226;2024-03-23T23:42:56;2.40;99.90
23801;DHT22;12081;48.614;10.226;2024-03-23T23:45:40;2.30;99.90
23801;DHT22;12081;48.614;10.226;2024-03-23T23:48:24;2.40;99.90
23801;DHT22;12081;48.614;10.226;2024-03-23T23:51:08;2.30;99.90
23801;DHT22;12081;48.614;10.226;2024-03-23T23:53:52;2.30;99.90
23801;DHT22;12081;48.614;10.226;2024-03-23T23:56:36;2.40;99.90
23801;DHT22;12081;48.614;10.226;2024-03-23T23:59:20;2.40;99.90
